createdAt,value
2023-10-06T00:02:22.352Z,98772.56
2023-10-06T00:12:28.034Z,98780.53
2023-10-06T00:22:30.822Z,98788.91
2023-10-06T00:32:33.763Z,98787.09
2023-10-06T00:42:36.491Z,98777.28
2023-10-06T00:52:41.016Z,98760.03
2023-10-06T01:02:48.122Z,98760.91
2023-10-06T01:12:53.616Z,98761.25
2023-10-06T01:22:58.003Z,98758.25
2023-10-06T01:33:00.483Z,98758.97
2023-10-06T01:43:11.097Z,98753.47
2023-10-06T01:53:20.443Z,98763.56
2023-10-06T02:03:24.304Z,98765.94
2023-10-06T02:13:27.360Z,98758.37
2023-10-06T02:23:30.212Z,98753.97
2023-10-06T02:33:37.751Z,98752.44
2023-10-06T02:43:42.222Z,98755.16
2023-10-06T02:53:50.015Z,98744.66
2023-10-06T03:04:08.232Z,98744.47
2023-10-06T03:14:10.904Z,98729.53
2023-10-06T03:24:33.092Z,98727.91
2023-10-06T03:34:36.007Z,98719.41
2023-10-06T03:44:38.708Z,98727.47
2023-10-06T03:54:41.305Z,98717.81
2023-10-06T04:04:43.827Z,98715.50
2023-10-06T04:14:46.410Z,98700.25
2023-10-06T04:24:48.939Z,98711.03
2023-10-06T04:34:52.735Z,98705.25
2023-10-06T04:44:56.610Z,98697.19
2023-10-06T04:54:59.398Z,98707.75
2023-10-06T05:05:02.691Z,98713.97
2023-10-06T05:15:16.134Z,98704.50
2023-10-06T05:25:21.505Z,98704.53
2023-10-06T05:35:26.274Z,98705.19
2023-10-06T05:45:31.286Z,98707.59
2023-10-06T05:55:36.869Z,98705.94
2023-10-06T06:05:40.562Z,98702.63
2023-10-06T06:15:43.647Z,98723.03
2023-10-06T06:25:46.818Z,98733.06
2023-10-06T06:35:50.783Z,98739.84
2023-10-06T06:45:55.184Z,98765.56
2023-10-06T06:55:58.756Z,98769.22
2023-10-06T07:06:01.754Z,98786.78
2023-10-06T07:16:07.183Z,98786.34
2023-10-06T07:26:13.354Z,98789.03
2023-10-06T07:36:19.765Z,98801.97
2023-10-06T07:46:22.857Z,98797.84
2023-10-06T07:56:25.662Z,98811.34
2023-10-06T08:06:29.268Z,98793.19
2023-10-06T08:16:38.656Z,98786.50
2023-10-06T08:26:42.796Z,98785.03
2023-10-06T08:36:45.428Z,98792.81
2023-10-06T08:46:49.752Z,98796.00
2023-10-06T08:56:52.572Z,98785.12
2023-10-06T09:07:14.350Z,98785.31
2023-10-06T09:17:30.433Z,98785.09
2023-10-06T09:27:36.094Z,98784.50
2023-10-06T09:37:39.008Z,98785.16
2023-10-06T09:47:50.054Z,98770.28
2023-10-06T09:57:55.695Z,98762.12
2023-10-06T10:08:00.926Z,98756.16
2023-10-06T10:18:17.490Z,98760.66
2023-10-06T10:28:28.883Z,98747.38
2023-10-06T10:38:34.760Z,98746.31
2023-10-06T10:48:49.108Z,98745.06
2023-10-06T10:58:52.271Z,98727.16
2023-10-06T11:08:56.470Z,98708.59
2023-10-06T11:19:00.236Z,98709.94
2023-10-06T11:29:03.249Z,98689.09
2023-10-06T11:39:06.724Z,98689.34
2023-10-06T11:49:11.423Z,98678.25
2023-10-06T11:59:22.543Z,98666.28
2023-10-06T12:09:35.333Z,98653.31
2023-10-06T12:19:38.505Z,98652.31
2023-10-06T12:29:41.410Z,98643.44
2023-10-06T12:39:46.877Z,98638.88
2023-10-06T12:49:50.694Z,98635.72
2023-10-06T12:59:53.623Z,98628.19
2023-10-06T13:09:59.855Z,98626.97
2023-10-06T13:20:02.479Z,98616.19
2023-10-06T13:30:24.168Z,98620.97
2023-10-06T13:40:26.948Z,98616.41
2023-10-06T13:50:32.620Z,98603.59
2023-10-06T14:00:36.467Z,98604.22
2023-10-06T14:10:39.694Z,98600.44
2023-10-06T14:20:44.941Z,98593.41
2023-10-06T14:30:47.555Z,98595.94
2023-10-06T14:41:14.869Z,98599.22
2023-10-06T14:51:20.541Z,98603.63
2023-10-06T15:01:24.703Z,98590.41
2023-10-06T15:11:29.992Z,98583.41
2023-10-06T15:21:35.475Z,98579.97
2023-10-06T15:31:38.805Z,98582.69
2023-10-06T15:41:41.551Z,98570.91
2023-10-06T15:51:44.315Z,98564.03
2023-10-06T16:01:48.834Z,98561.56
2023-10-06T16:11:52.217Z,98562.03
2023-10-06T16:21:56.877Z,98571.97
2023-10-06T16:32:01.700Z,98570.03
2023-10-06T16:42:07.299Z,98570.38
2023-10-06T16:52:09.953Z,98584.31
2023-10-06T17:02:14.849Z,98586.69
2023-10-06T17:12:22.487Z,98595.03
2023-10-06T17:22:26.015Z,98604.91
2023-10-06T17:32:29.126Z,98608.94
2023-10-06T17:42:32.477Z,98609.13
2023-10-06T17:52:35.124Z,98616.66
2023-10-06T18:02:38.375Z,98623.00
2023-10-06T18:12:42.536Z,98628.22
2023-10-06T18:22:45.289Z,98630.16
2023-10-06T18:32:48.048Z,98641.41
2023-10-06T18:42:50.928Z,98646.63
2023-10-06T18:52:53.701Z,98644.22
2023-10-06T19:02:58.515Z,98663.16
2023-10-06T19:13:01.496Z,98663.75
2023-10-06T19:23:05.367Z,98671.50
2023-10-06T19:33:09.393Z,98668.09
2023-10-06T19:43:11.799Z,98677.59
2023-10-06T19:53:14.618Z,98679.28
2023-10-06T20:03:17.976Z,98679.44
2023-10-06T20:13:20.877Z,98681.87
2023-10-06T20:23:23.753Z,98687.25
2023-10-06T20:33:26.840Z,98683.53
2023-10-06T20:43:29.376Z,98680.31
2023-10-06T20:53:33.840Z,98687.28
2023-10-06T21:03:36.818Z,98698.97
2023-10-06T21:13:40.002Z,98703.47
2023-10-06T21:23:42.755Z,98711.81
2023-10-06T21:33:45.952Z,98709.28
2023-10-06T21:53:51.020Z,98715.25
2023-10-06T22:03:54.220Z,98715.03
2023-10-06T22:13:57.106Z,98700.13
2023-10-06T22:23:59.653Z,98699.69
2023-10-06T22:34:02.178Z,98698.97
2023-10-06T22:44:04.960Z,98694.97
2023-10-06T22:54:08.428Z,98690.16
2023-10-06T23:04:11.280Z,98684.97
2023-10-06T23:14:16.332Z,98696.03
2023-10-06T23:24:19.058Z,98691.34
2023-10-06T23:34:21.461Z,98690.72
2023-10-06T23:44:25.171Z,98697.22
2023-10-06T23:54:27.670Z,98695.34
